createdAt,value
2023-02-27T00:00:40.872Z,1.40
2023-02-27T00:03:07.731Z,1.40
2023-02-27T00:05:37.037Z,1.40
2023-02-27T00:08:03.886Z,1.40
2023-02-27T00:10:30.807Z,1.40
2023-02-27T00:12:57.642Z,1.40
2023-02-27T00:15:24.873Z,1.30
2023-02-27T00:17:51.976Z,1.30
2023-02-27T00:20:19.732Z,1.30
2023-02-27T00:22:47.302Z,1.30
2023-02-27T00:25:14.346Z,1.30
2023-02-27T00:27:41.663Z,1.30
2023-02-27T00:30:12.084Z,1.30
2023-02-27T00:32:44.423Z,1.20
2023-02-27T00:35:14.268Z,1.20
2023-02-27T00:37:41.444Z,1.20
2023-02-27T00:40:10.141Z,1.20
2023-02-27T00:42:37.048Z,1.20
2023-02-27T00:45:07.691Z,1.10
2023-02-27T00:47:35.572Z,1.10
2023-02-27T00:50:02.457Z,1.10
2023-02-27T00:52:29.692Z,1.10
2023-02-27T00:54:56.536Z,1.10
2023-02-27T00:57:23.394Z,1.10
2023-02-27T00:59:50.416Z,1.10
2023-02-27T01:02:17.694Z,1.00
2023-02-27T01:04:44.610Z,1.00
2023-02-27T01:07:11.474Z,1.00
2023-02-27T01:09:38.483Z,1.00
2023-02-27T01:12:05.639Z,1.00
2023-02-27T01:14:32.564Z,1.00
2023-02-27T01:17:01.989Z,1.00
2023-02-27T01:19:36.021Z,1.00
2023-02-27T01:22:05.675Z,0.90
2023-02-27T01:24:35.216Z,0.90
2023-02-27T01:27:02.084Z,0.90
2023-02-27T01:29:31.574Z,0.90
2023-02-27T01:31:58.521Z,0.90
2023-02-27T01:34:25.450Z,0.90
2023-02-27T01:36:57.031Z,0.90
2023-02-27T01:39:26.443Z,0.90
2023-02-27T01:41:55.757Z,0.90
2023-02-27T01:44:26.491Z,0.80
2023-02-27T01:46:55.561Z,0.80
2023-02-27T01:49:27.314Z,0.80
2023-02-27T01:52:06.660Z,0.80
2023-02-27T01:54:38.878Z,0.80
2023-02-27T01:57:06.802Z,0.70
2023-02-27T01:59:38.916Z,0.80
2023-02-27T02:02:14.630Z,0.70
2023-02-27T02:04:42.216Z,0.70
2023-02-27T02:07:14.057Z,0.70
2023-02-27T02:09:50.853Z,0.70
2023-02-27T02:12:24.744Z,0.70
2023-02-27T02:14:54.563Z,0.70
2023-02-27T02:17:40.191Z,0.60
2023-02-27T02:20:45.602Z,0.70
2023-02-27T02:23:21.864Z,0.60
2023-02-27T02:26:12.630Z,0.60
2023-02-27T02:29:16.979Z,0.60
2023-02-27T02:32:27.167Z,0.60
2023-02-27T02:35:15.902Z,0.60
2023-02-27T02:37:57.923Z,0.50
2023-02-27T02:40:33.793Z,0.50
2023-02-27T02:48:03.620Z,0.50
2023-02-27T02:50:33.128Z,0.50
2023-02-27T02:53:28.707Z,0.50
2023-02-27T02:56:09.962Z,0.40
2023-02-27T02:58:48.472Z,0.50
2023-02-27T03:01:26.543Z,0.40
2023-02-27T03:04:03.786Z,0.40
2023-02-27T03:06:42.184Z,0.50
2023-02-27T03:09:21.421Z,0.50
2023-02-27T03:11:53.279Z,0.40
2023-02-27T03:14:44.613Z,0.40
2023-02-27T03:17:17.879Z,0.40
2023-02-27T03:19:55.134Z,0.40
2023-02-27T03:22:41.944Z,0.40
2023-02-27T03:25:12.548Z,0.40
2023-02-27T03:28:08.040Z,0.40
2023-02-27T03:30:41.394Z,0.40
2023-02-27T03:33:18.783Z,0.40
2023-02-27T03:36:19.139Z,0.40
2023-02-27T03:39:14.010Z,0.40
2023-02-27T03:42:16.183Z,0.40
2023-02-27T03:45:16.764Z,0.30
2023-02-27T03:47:46.838Z,0.30
2023-02-27T03:50:14.243Z,0.30
2023-02-27T03:52:42.351Z,0.30
2023-02-27T03:55:14.627Z,0.30
2023-02-27T03:57:42.517Z,0.30
2023-02-27T04:00:13.599Z,0.30
2023-02-27T04:02:54.633Z,0.30
2023-02-27T04:05:24.876Z,0.30
2023-02-27T04:08:35.678Z,0.30
2023-02-27T04:11:23.787Z,0.30
2023-02-27T04:14:08.921Z,0.30
2023-02-27T04:16:48.318Z,0.30
2023-02-27T04:19:22.107Z,0.30
2023-02-27T04:22:21.195Z,0.20
2023-02-27T04:24:57.151Z,0.20
2023-02-27T04:27:59.464Z,0.20
2023-02-27T04:30:30.129Z,0.30
2023-02-27T04:33:21.768Z,0.20
2023-02-27T04:35:51.813Z,0.20
2023-02-27T04:38:30.176Z,0.20
2023-02-27T04:41:00.392Z,0.20
2023-02-27T04:43:29.529Z,0.20
2023-02-27T04:45:59.911Z,0.20
2023-02-27T04:48:35.564Z,0.20
2023-02-27T04:51:13.424Z,0.20
2023-02-27T04:53:43.238Z,0.20
2023-02-27T04:56:16.025Z,0.10
2023-02-27T04:58:51.952Z,0.10
2023-02-27T05:01:51.346Z,0.10
2023-02-27T05:04:23.983Z,0.00
2023-02-27T05:06:55.016Z,0.00
2023-02-27T05:10:08.902Z,0.00
2023-02-27T05:12:46.279Z,0.00
2023-02-27T05:15:23.416Z,-0.10
2023-02-27T05:17:58.296Z,-0.10
2023-02-27T05:20:32.558Z,-0.10
2023-02-27T05:23:08.976Z,-0.10
2023-02-27T05:25:43.396Z,-0.20
2023-02-27T05:28:22.523Z,-0.20
2023-02-27T05:31:03.499Z,-0.20
2023-02-27T05:33:38.430Z,-0.20
2023-02-27T05:36:24.278Z,-0.20
2023-02-27T05:38:57.037Z,-0.20
2023-02-27T05:41:36.750Z,-0.20
2023-02-27T05:44:12.992Z,-0.20
2023-02-27T05:46:47.923Z,-0.30
2023-02-27T05:49:25.651Z,-0.20
2023-02-27T05:51:56.856Z,-0.20
2023-02-27T05:58:55.743Z,-0.30
2023-02-27T06:01:22.665Z,-0.30
2023-02-27T06:03:49.710Z,-0.30
2023-02-27T06:06:18.709Z,-0.30
2023-02-27T06:08:46.420Z,-0.30
2023-02-27T06:11:18.125Z,-0.30
2023-02-27T06:13:44.950Z,-0.30
2023-02-27T06:16:15.869Z,-0.30
2023-02-27T06:18:42.816Z,-0.30
2023-02-27T06:21:10.182Z,-0.30
2023-02-27T06:23:37.052Z,-0.30
2023-02-27T06:26:04.120Z,-0.30
2023-02-27T06:28:33.312Z,-0.30
2023-02-27T06:31:00.226Z,-0.30
2023-02-27T06:33:27.155Z,-0.30
2023-02-27T06:35:58.666Z,-0.30
2023-02-27T06:38:27.735Z,-0.30
2023-02-27T06:40:56.809Z,-0.30
2023-02-27T06:43:23.651Z,-0.30
2023-02-27T06:45:54.350Z,-0.20
2023-02-27T06:48:21.306Z,-0.30
2023-02-27T06:50:53.250Z,-0.20
2023-02-27T06:53:20.309Z,-0.20
2023-02-27T06:55:47.212Z,-0.10
2023-02-27T06:58:14.735Z,-0.10
2023-02-27T07:00:41.732Z,0.00
2023-02-27T07:03:11.347Z,0.00
2023-02-27T07:05:41.734Z,0.00
2023-02-27T07:08:09.092Z,0.10
2023-02-27T07:10:39.905Z,0.10
2023-02-27T07:13:06.699Z,0.20
2023-02-27T07:15:33.722Z,0.20
2023-02-27T07:18:00.604Z,0.20
2023-02-27T07:20:27.565Z,0.20
2023-02-27T07:22:54.604Z,0.30
2023-02-27T07:25:23.804Z,0.30
2023-02-27T07:27:56.004Z,0.30
2023-02-27T07:30:22.838Z,0.40
2023-02-27T07:32:50.678Z,0.50
2023-02-27T07:35:18.520Z,0.50
2023-02-27T07:37:49.406Z,0.50
2023-02-27T07:40:16.618Z,0.60
2023-02-27T07:42:48.140Z,0.60
2023-02-27T07:45:18.414Z,0.60
2023-02-27T07:47:48.621Z,0.70
2023-02-27T07:50:16.017Z,0.70
2023-02-27T07:52:46.477Z,0.70
2023-02-27T07:55:14.391Z,0.80
2023-02-27T07:57:45.309Z,0.90
2023-02-27T08:00:15.247Z,0.90
2023-02-27T08:02:42.285Z,0.90
2023-02-27T08:05:09.351Z,1.00
2023-02-27T08:07:36.859Z,1.00
2023-02-27T08:10:05.524Z,1.10
2023-02-27T08:12:32.499Z,1.20
2023-02-27T08:14:59.488Z,1.30
2023-02-27T08:17:26.670Z,1.40
2023-02-27T08:19:53.703Z,1.40
2023-02-27T08:22:23.478Z,1.50
2023-02-27T08:24:50.432Z,1.50
2023-02-27T08:27:20.188Z,1.60
2023-02-27T08:29:47.048Z,1.70
2023-02-27T08:32:13.990Z,1.80
2023-02-27T08:34:43.196Z,1.90
2023-02-27T08:37:10.179Z,1.90
2023-02-27T08:39:39.680Z,2.00
2023-02-27T08:42:08.702Z,2.00
2023-02-27T08:44:35.769Z,2.10
2023-02-27T08:47:02.897Z,2.20
2023-02-27T08:49:29.938Z,2.30
2023-02-27T08:51:56.861Z,2.30
2023-02-27T08:54:23.960Z,2.40
2023-02-27T08:56:50.890Z,2.60
2023-02-27T08:59:20.958Z,2.70
2023-02-27T09:01:47.850Z,2.80
2023-02-27T09:04:17.609Z,2.90
2023-02-27T09:06:44.662Z,3.00
2023-02-27T09:09:14.018Z,3.10
2023-02-27T09:11:41.114Z,3.20
2023-02-27T09:14:08.313Z,3.30
2023-02-27T09:16:35.203Z,3.40
2023-02-27T09:19:02.396Z,3.60
2023-02-27T09:21:29.776Z,3.90
2023-02-27T09:24:02.535Z,4.00
2023-02-27T09:26:44.308Z,4.10
2023-02-27T09:29:12.298Z,4.20
2023-02-27T09:31:39.245Z,4.20
2023-02-27T09:34:08.331Z,4.20
2023-02-27T09:36:35.424Z,4.30
2023-02-27T09:39:02.439Z,4.40
2023-02-27T09:41:35.381Z,4.40
2023-02-27T09:44:02.669Z,4.70
2023-02-27T09:46:30.051Z,4.90
2023-02-27T09:49:04.766Z,4.90
2023-02-27T09:51:33.856Z,4.90
2023-02-27T09:54:01.690Z,4.80
2023-02-27T09:56:46.731Z,4.80
2023-02-27T09:59:37.048Z,4.80
2023-02-27T10:02:16.347Z,4.80
2023-02-27T10:05:15.107Z,4.80
2023-02-27T10:07:56.995Z,4.70
2023-02-27T10:10:39.269Z,4.70
2023-02-27T10:13:35.827Z,4.80
2023-02-27T10:16:04.995Z,4.80
2023-02-27T10:18:41.566Z,4.90
2023-02-27T10:21:16.205Z,4.80
2023-02-27T10:23:53.282Z,4.80
2023-02-27T10:26:23.102Z,4.90
2023-02-27T10:28:50.188Z,5.00
2023-02-27T10:31:27.330Z,5.00
2023-02-27T10:33:56.099Z,5.10
2023-02-27T10:36:33.713Z,5.00
2023-02-27T10:39:15.640Z,5.20
2023-02-27T10:41:48.664Z,5.20
2023-02-27T10:44:18.634Z,5.30
2023-02-27T10:46:45.873Z,5.30
2023-02-27T10:49:23.627Z,5.40
2023-02-27T10:52:07.518Z,5.50
2023-02-27T10:54:37.138Z,5.50
2023-02-27T10:57:20.732Z,5.50
2023-02-27T11:00:00.539Z,5.60
2023-02-27T11:02:41.000Z,5.70
2023-02-27T11:05:23.180Z,5.70
2023-02-27T11:07:52.654Z,5.70
2023-02-27T11:10:26.046Z,5.60
2023-02-27T11:13:24.705Z,5.60
2023-02-27T11:16:10.335Z,5.50
2023-02-27T11:18:44.747Z,5.50
2023-02-27T11:21:27.956Z,5.60
2023-02-27T11:24:18.320Z,5.60
2023-02-27T11:26:59.888Z,5.70
2023-02-27T11:29:33.375Z,5.70
2023-02-27T11:32:03.255Z,5.70
2023-02-27T11:34:39.633Z,5.70
2023-02-27T11:37:23.224Z,5.70
2023-02-27T11:39:53.675Z,5.70
2023-02-27T11:42:32.371Z,5.60
2023-02-27T11:46:04.792Z,5.40
2023-02-27T11:48:20.614Z,5.30
2023-02-27T11:51:08.592Z,5.30
2023-02-27T11:53:41.263Z,5.20
2023-02-27T11:56:13.303Z,5.20
2023-02-27T11:58:48.413Z,5.20
2023-02-27T12:01:28.323Z,5.30
2023-02-27T12:04:16.623Z,5.30
2023-02-27T12:07:12.392Z,5.40
2023-02-27T12:09:59.539Z,5.50
2023-02-27T12:12:45.546Z,5.60
2023-02-27T12:15:37.096Z,5.70
2023-02-27T12:18:07.964Z,5.80
2023-02-27T12:21:04.274Z,5.80
2023-02-27T12:23:43.101Z,5.80
2023-02-27T12:26:32.608Z,5.80
2023-02-27T12:29:07.427Z,5.80
2023-02-27T12:31:37.415Z,5.70
2023-02-27T12:34:17.823Z,5.50
2023-02-27T12:36:45.832Z,5.50
2023-02-27T12:39:28.799Z,5.50
2023-02-27T12:42:25.053Z,5.50
2023-02-27T12:45:43.311Z,5.40
2023-02-27T12:48:39.585Z,5.30
2023-02-27T12:51:21.620Z,5.30
2023-02-27T12:54:24.480Z,5.30
2023-02-27T12:57:06.514Z,5.40
2023-02-27T13:00:06.833Z,5.40
2023-02-27T13:02:52.600Z,5.50
2023-02-27T13:05:43.331Z,5.50
2023-02-27T13:08:21.338Z,5.50
2023-02-27T13:11:00.223Z,5.50
2023-02-27T13:14:01.451Z,5.60
2023-02-27T13:16:31.517Z,5.60
2023-02-27T13:19:12.977Z,5.60
2023-02-27T13:21:47.419Z,5.60
2023-02-27T13:24:17.422Z,5.60
2023-02-27T13:26:51.941Z,5.60
2023-02-27T13:29:21.725Z,5.50
2023-02-27T13:32:02.797Z,5.50
2023-02-27T13:34:40.499Z,5.50
2023-02-27T13:37:11.715Z,5.50
2023-02-27T13:39:41.436Z,5.60
2023-02-27T13:42:28.943Z,5.60
2023-02-27T13:45:45.679Z,5.60
2023-02-27T13:48:39.958Z,5.60
2023-02-27T13:51:45.969Z,5.60
2023-02-27T13:54:18.456Z,5.60
2023-02-27T13:57:26.301Z,5.60
2023-02-27T14:00:01.309Z,5.60
2023-02-27T14:02:31.055Z,5.80
2023-02-27T14:05:03.007Z,5.80
2023-02-27T14:07:59.126Z,5.90
2023-02-27T14:10:30.921Z,6.00
2023-02-27T14:13:03.739Z,5.90
2023-02-27T14:15:34.485Z,5.90
2023-02-27T14:18:15.641Z,5.90
2023-02-27T14:20:44.823Z,5.90
2023-02-27T14:23:21.177Z,5.80
2023-02-27T14:26:15.638Z,5.80
2023-02-27T14:28:56.428Z,5.80
2023-02-27T14:31:29.916Z,5.70
2023-02-27T14:34:04.902Z,5.80
2023-02-27T14:36:52.660Z,5.70
2023-02-27T14:39:32.410Z,5.70
2023-02-27T14:42:24.084Z,5.70
2023-02-27T14:44:51.675Z,5.60
2023-02-27T14:47:34.449Z,5.50
2023-02-27T14:50:08.132Z,5.50
2023-02-27T14:52:43.086Z,5.40
2023-02-27T14:55:29.636Z,5.40
2023-02-27T14:58:17.976Z,5.30
2023-02-27T15:00:50.653Z,5.30
2023-02-27T15:03:24.289Z,5.20
2023-02-27T15:05:55.755Z,5.20
2023-02-27T15:08:26.049Z,5.20
2023-02-27T15:10:55.458Z,5.20
2023-02-27T15:13:32.506Z,5.20
2023-02-27T15:16:20.217Z,5.10
2023-02-27T15:18:51.400Z,5.10
2023-02-27T15:21:20.930Z,5.10
2023-02-27T15:24:00.161Z,5.20
2023-02-27T15:26:30.163Z,5.20
2023-02-27T15:29:00.485Z,5.10
2023-02-27T15:31:31.250Z,5.20
2023-02-27T15:33:59.705Z,5.20
2023-02-27T15:36:34.829Z,5.20
2023-02-27T15:39:16.170Z,5.10
2023-02-27T15:41:54.496Z,5.10
2023-02-27T15:44:32.544Z,5.10
2023-02-27T15:46:59.881Z,5.00
2023-02-27T15:49:29.444Z,5.00
2023-02-27T15:52:11.916Z,5.00
2023-02-27T15:54:56.189Z,5.00
2023-02-27T15:57:24.063Z,5.10
2023-02-27T15:59:55.623Z,5.10
2023-02-27T16:02:29.976Z,5.10
2023-02-27T16:05:01.846Z,5.10
2023-02-27T16:07:33.151Z,5.10
2023-02-27T16:10:05.975Z,5.00
2023-02-27T16:12:36.940Z,5.00
2023-02-27T16:15:30.000Z,5.00
2023-02-27T16:18:31.191Z,5.00
2023-02-27T16:21:10.295Z,5.00
2023-02-27T16:23:39.595Z,4.90
2023-02-27T16:26:16.857Z,4.90
2023-02-27T16:28:59.867Z,4.90
2023-02-27T16:31:37.255Z,4.90
2023-02-27T16:34:13.132Z,4.90
2023-02-27T16:36:52.395Z,4.90
2023-02-27T16:39:19.452Z,4.90
2023-02-27T16:41:49.464Z,4.90
2023-02-27T16:44:21.638Z,4.90
2023-02-27T16:46:48.593Z,4.90
2023-02-27T16:49:28.275Z,4.90
2023-02-27T16:51:58.481Z,4.90
2023-02-27T16:54:25.788Z,4.90
2023-02-27T16:56:54.751Z,4.80
2023-02-27T16:59:31.020Z,4.80
2023-02-27T17:01:59.019Z,4.80
2023-02-27T17:04:29.626Z,4.80
2023-02-27T17:06:58.436Z,4.80
2023-02-27T17:09:28.364Z,4.80
2023-02-27T17:11:59.316Z,4.70
2023-02-27T17:14:26.201Z,4.70
2023-02-27T17:16:53.205Z,4.70
2023-02-27T17:19:21.525Z,4.70
2023-02-27T17:21:49.107Z,4.70
2023-02-27T17:24:16.325Z,4.70
2023-02-27T17:26:48.115Z,4.70
2023-02-27T17:29:15.089Z,4.70
2023-02-27T17:31:42.146Z,4.70
2023-02-27T17:34:11.322Z,4.70
2023-02-27T17:36:38.598Z,4.80
2023-02-27T17:39:05.550Z,4.80
2023-02-27T17:41:34.042Z,4.80
2023-02-27T17:44:03.430Z,4.80
2023-02-27T17:46:31.445Z,4.80
2023-02-27T17:49:01.185Z,4.80
2023-02-27T17:51:30.048Z,4.80
2023-02-27T17:54:05.015Z,4.80
2023-02-27T17:56:32.351Z,4.80
2023-02-27T17:58:59.457Z,4.80
2023-02-27T18:01:33.412Z,4.80
2023-02-27T18:04:00.383Z,4.80
2023-02-27T18:06:29.665Z,4.80
2023-02-27T18:08:56.729Z,4.70
2023-02-27T18:11:25.984Z,4.70
2023-02-27T18:13:55.379Z,4.70
2023-02-27T18:16:22.430Z,4.70
2023-02-27T18:18:49.848Z,4.70
2023-02-27T18:21:22.724Z,4.70
2023-02-27T18:23:51.552Z,4.70
2023-02-27T18:26:32.543Z,4.70
2023-02-27T18:29:01.945Z,4.60
2023-02-27T18:31:44.326Z,4.60
2023-02-27T18:34:12.295Z,4.60
2023-02-27T18:36:39.492Z,4.60
2023-02-27T18:39:06.722Z,4.60
2023-02-27T18:41:36.914Z,4.60
2023-02-27T18:44:05.282Z,4.60
2023-02-27T18:46:35.037Z,4.60
2023-02-27T18:49:01.994Z,4.60
2023-02-27T18:51:31.570Z,4.60
2023-02-27T18:54:00.752Z,4.60
2023-02-27T18:56:30.399Z,4.60
2023-02-27T18:59:05.016Z,4.70
2023-02-27T19:01:37.161Z,4.70
2023-02-27T19:04:06.096Z,4.70
2023-02-27T19:06:40.714Z,4.70
2023-02-27T19:09:09.671Z,4.70
2023-02-27T20:04:45.318Z,4.40
2023-02-27T20:07:18.891Z,4.40
2023-02-27T20:09:45.964Z,4.30
2023-02-27T20:12:12.907Z,4.40
2023-02-27T20:14:40.611Z,4.30
2023-02-27T20:17:08.094Z,4.30
2023-02-27T20:19:38.536Z,4.30
2023-02-27T20:22:08.564Z,4.30
2023-02-27T20:24:38.232Z,4.20
2023-02-27T20:27:05.180Z,4.20
2023-02-27T20:29:32.532Z,4.20
2023-02-27T20:32:02.665Z,4.20
2023-02-27T20:34:30.303Z,4.20
2023-02-27T20:37:00.373Z,4.10
2023-02-27T20:39:31.169Z,4.20
2023-02-27T20:41:58.171Z,4.10
2023-02-27T20:44:25.291Z,4.20
2023-02-27T20:46:52.469Z,4.10
2023-02-27T20:49:20.185Z,4.20
2023-02-27T20:51:47.391Z,4.10
2023-02-27T20:54:20.140Z,4.20
2023-02-27T20:56:51.739Z,4.10
2023-02-27T20:59:22.446Z,4.10
2023-02-27T21:01:55.420Z,4.10
2023-02-27T21:04:47.458Z,4.10
2023-02-27T21:07:18.842Z,4.20
2023-02-27T21:09:45.894Z,4.20
2023-02-27T21:12:13.424Z,4.10
2023-02-27T21:14:40.928Z,4.10
2023-02-27T21:17:08.844Z,4.10
2023-02-27T21:19:36.506Z,4.10
2023-02-27T21:22:04.071Z,4.10
2023-02-27T21:24:32.404Z,4.10
2023-02-27T21:26:59.745Z,4.10
2023-02-27T21:29:30.816Z,4.10
2023-02-27T21:31:57.719Z,4.10
2023-02-27T21:34:29.429Z,4.10
2023-02-27T21:36:56.483Z,4.10
2023-02-27T21:39:30.815Z,4.10
2023-02-27T21:41:59.528Z,4.10
2023-02-27T21:44:29.690Z,4.10
2023-02-27T21:46:59.150Z,4.10
2023-02-27T21:49:28.313Z,4.10
2023-02-27T21:51:59.842Z,4.10
2023-02-27T21:54:26.815Z,4.10
2023-02-27T21:56:53.654Z,4.10
2023-02-27T21:59:21.619Z,4.10
2023-02-27T22:01:51.440Z,4.10
2023-02-27T22:04:20.823Z,4.10
2023-02-27T22:06:49.413Z,4.10
2023-02-27T22:09:19.085Z,4.10
2023-02-27T22:11:48.612Z,4.00
2023-02-27T22:14:18.113Z,4.00
2023-02-27T22:16:45.083Z,4.00
2023-02-27T22:19:21.876Z,4.00
2023-02-27T22:21:48.734Z,4.00
2023-02-27T22:24:15.724Z,4.00
2023-02-27T22:26:44.416Z,4.00
2023-02-27T22:29:13.387Z,4.00
2023-02-27T22:31:40.419Z,4.00
2023-02-27T22:34:18.027Z,4.00
2023-02-27T22:36:47.044Z,4.00
2023-02-27T22:39:16.249Z,4.00
2023-02-27T22:41:43.441Z,4.00
2023-02-27T22:44:15.942Z,3.90
2023-02-27T22:46:45.848Z,3.90
2023-02-27T22:49:21.532Z,3.90
2023-02-27T22:51:50.948Z,3.90
2023-02-27T22:54:19.559Z,3.90
2023-02-27T22:56:48.596Z,3.90
2023-02-27T22:59:17.709Z,3.90
2023-02-27T23:01:44.773Z,3.80
2023-02-27T23:04:12.113Z,3.80
2023-02-27T23:06:40.793Z,3.80
2023-02-27T23:09:10.757Z,3.90
2023-02-27T23:11:37.897Z,3.90
2023-02-27T23:14:04.817Z,3.90
2023-02-27T23:16:36.728Z,3.90
2023-02-27T23:19:06.416Z,3.90
2023-02-27T23:21:36.053Z,3.90
2023-02-27T23:24:15.769Z,3.90
2023-02-27T23:26:45.104Z,3.90
2023-02-27T23:29:12.571Z,3.80
2023-02-27T23:31:39.974Z,3.80
2023-02-27T23:34:12.289Z,3.80
2023-02-27T23:36:41.716Z,3.80
2023-02-27T23:39:09.214Z,3.80
2023-02-27T23:41:36.099Z,3.80
2023-02-27T23:44:23.350Z,3.80
2023-02-27T23:46:50.188Z,3.80
2023-02-27T23:49:17.043Z,3.80
2023-02-27T23:51:44.016Z,3.80
2023-02-27T23:54:13.046Z,3.80
2023-02-27T23:56:40.036Z,3.80
2023-02-27T23:59:07.537Z,3.80
